createdAt,value
2022-12-01T00:00:21.439Z,17.80
2022-12-01T00:01:21.437Z,18.30
2022-12-01T00:02:21.532Z,17.70
2022-12-01T00:03:21.480Z,17.60
2022-12-01T00:04:21.417Z,18.60
2022-12-01T00:05:21.384Z,17.90
2022-12-01T00:06:21.356Z,19.20
2022-12-01T00:07:23.461Z,18.70
2022-12-01T00:09:31.577Z,17.90
2022-12-01T00:10:31.567Z,18.60
2022-12-01T00:11:31.556Z,18.30
2022-12-01T00:12:31.557Z,17.90
2022-12-01T00:13:31.617Z,18.30
2022-12-01T00:14:32.545Z,19.80
2022-12-01T00:15:31.507Z,18.60
2022-12-01T00:16:31.561Z,18.70
2022-12-01T00:17:31.579Z,19.70
2022-12-01T00:18:31.560Z,20.20
2022-12-01T00:19:31.549Z,18.90
2022-12-01T00:20:31.451Z,19.20
2022-12-01T00:21:31.468Z,19.20
2022-12-01T00:22:31.510Z,15.90
2022-12-01T00:23:31.459Z,15.80
2022-12-01T00:24:31.489Z,18.10
2022-12-01T00:25:31.809Z,18.20
2022-12-01T00:26:31.378Z,18.80
2022-12-01T00:27:31.382Z,16.80
2022-12-01T00:28:31.432Z,17.80
2022-12-01T00:29:31.449Z,19.40
2022-12-01T00:30:31.328Z,17.90
2022-12-01T00:31:33.505Z,19.10
2022-12-01T00:32:31.369Z,20.70
2022-12-01T00:33:31.358Z,18.50
2022-12-01T00:34:31.378Z,17.10
2022-12-01T00:35:31.249Z,18.00
2022-12-01T00:36:31.242Z,17.70
2022-12-01T00:37:31.240Z,17.00
2022-12-01T00:38:31.280Z,18.50
2022-12-01T00:39:31.236Z,17.20
2022-12-01T00:40:31.190Z,18.50
2022-12-01T00:41:31.221Z,19.20
2022-12-01T00:42:31.178Z,17.70
2022-12-01T00:43:31.168Z,18.80
2022-12-01T00:44:31.148Z,16.80
2022-12-01T00:45:31.250Z,17.20
2022-12-01T00:46:31.164Z,16.60
2022-12-01T00:47:31.092Z,16.90
2022-12-01T00:48:32.209Z,18.50
2022-12-01T00:49:32.172Z,17.60
2022-12-01T00:50:31.051Z,17.30
2022-12-01T00:51:31.042Z,17.50
2022-12-01T00:52:31.062Z,18.20
2022-12-01T00:53:31.113Z,18.10
2022-12-01T00:54:31.001Z,17.40
2022-12-01T00:55:31.009Z,18.50
2022-12-01T00:56:31.020Z,18.50
2022-12-01T00:57:31.033Z,18.50
2022-12-01T00:58:31.039Z,18.80
2022-12-01T00:59:31.013Z,18.20
2022-12-01T01:00:31.944Z,17.60
2022-12-01T01:01:30.957Z,19.70
2022-12-01T01:02:30.967Z,21.70
2022-12-01T01:03:30.979Z,22.80
2022-12-01T01:04:30.881Z,23.60
2022-12-01T01:05:30.875Z,21.70
2022-12-01T01:06:30.863Z,22.00
2022-12-01T01:07:30.910Z,21.10
2022-12-01T01:08:30.843Z,22.10
2022-12-01T01:09:30.853Z,21.10
2022-12-01T01:10:30.810Z,20.80
2022-12-01T01:11:30.915Z,18.50
2022-12-01T01:12:30.794Z,18.10
2022-12-01T01:13:30.793Z,20.00
2022-12-01T01:14:30.743Z,19.30
2022-12-01T01:15:30.831Z,19.10
2022-12-01T01:16:30.899Z,19.80
2022-12-01T01:17:30.716Z,18.00
2022-12-01T01:18:30.695Z,18.30
2022-12-01T01:19:30.744Z,18.80
2022-12-01T01:20:30.681Z,17.60
2022-12-01T01:21:30.683Z,19.10
2022-12-01T01:22:30.687Z,17.80
2022-12-01T01:23:30.695Z,18.20
2022-12-01T01:24:30.617Z,19.40
2022-12-01T01:25:30.613Z,20.20
2022-12-01T01:26:30.686Z,18.60
2022-12-01T01:27:30.596Z,18.70
2022-12-01T01:28:31.654Z,19.60
2022-12-01T01:29:30.566Z,18.20
2022-12-01T01:30:31.674Z,18.50
2022-12-01T01:31:30.526Z,19.70
2022-12-01T01:32:30.535Z,21.20
2022-12-01T01:33:30.495Z,20.20
2022-12-01T01:34:30.580Z,21.40
2022-12-01T01:35:32.520Z,21.80
2022-12-01T01:36:30.545Z,22.70
2022-12-01T01:37:30.466Z,21.30
2022-12-01T01:38:30.469Z,22.50
2022-12-01T01:39:30.438Z,23.60
2022-12-01T01:40:30.446Z,24.00
2022-12-01T01:41:30.468Z,22.40
2022-12-01T01:42:31.415Z,23.00
2022-12-01T01:43:30.397Z,21.50
2022-12-01T01:44:30.366Z,23.60
2022-12-01T01:45:30.408Z,18.80
2022-12-01T01:46:30.482Z,21.40
2022-12-01T01:47:30.327Z,20.90
2022-12-01T01:48:30.314Z,17.60
2022-12-01T01:49:30.367Z,19.70
2022-12-01T01:50:30.340Z,18.20
2022-12-01T01:51:30.345Z,19.00
2022-12-01T01:52:30.350Z,18.80
2022-12-01T01:53:30.249Z,19.40
2022-12-01T01:54:30.307Z,20.70
2022-12-01T01:55:30.226Z,20.90
2022-12-01T01:56:30.198Z,19.70
2022-12-01T01:57:30.279Z,19.00
2022-12-01T01:58:30.186Z,17.90
2022-12-01T01:59:30.241Z,17.70
2022-12-01T02:00:30.139Z,19.40
2022-12-01T02:01:30.253Z,19.60
2022-12-01T02:02:30.250Z,18.70
2022-12-01T02:03:31.146Z,18.30
2022-12-01T02:04:30.104Z,19.40
2022-12-01T02:05:30.139Z,19.10
2022-12-01T02:06:30.139Z,17.40
2022-12-01T02:07:30.225Z,18.70
2022-12-01T02:08:30.052Z,18.40
2022-12-01T02:09:34.294Z,17.90
2022-12-01T02:10:30.009Z,18.00
2022-12-01T02:11:30.010Z,20.40
2022-12-01T02:12:30.000Z,21.00
2022-12-01T02:13:30.092Z,19.80
2022-12-01T02:14:31.052Z,20.00
2022-12-01T02:15:29.951Z,21.60
2022-12-01T02:16:29.996Z,19.60
2022-12-01T02:17:30.022Z,19.50
2022-12-01T02:18:30.019Z,21.40
2022-12-01T02:19:29.923Z,20.80
2022-12-01T02:20:30.949Z,21.00
2022-12-01T02:21:29.943Z,20.40
2022-12-01T02:22:29.951Z,18.00
2022-12-01T02:23:29.949Z,20.40
2022-12-01T02:24:29.846Z,21.70
2022-12-01T02:25:29.879Z,19.60
2022-12-01T02:26:29.822Z,18.40
2022-12-01T02:27:29.800Z,21.30
2022-12-01T02:28:29.896Z,19.00
2022-12-01T02:29:29.780Z,20.60
2022-12-01T02:30:29.856Z,18.60
2022-12-01T02:31:29.753Z,19.00
2022-12-01T02:32:29.731Z,20.40
2022-12-01T02:33:29.821Z,19.70
2022-12-01T02:34:29.712Z,20.20
2022-12-01T02:35:29.733Z,21.30
2022-12-01T02:36:29.732Z,20.30
2022-12-01T02:37:29.749Z,20.80
2022-12-01T02:38:29.749Z,23.10
2022-12-01T02:39:29.654Z,21.60
2022-12-01T02:40:29.698Z,22.40
2022-12-01T02:41:29.679Z,21.40
2022-12-01T02:42:29.671Z,20.90
2022-12-01T02:43:29.681Z,20.90
2022-12-01T02:44:29.692Z,19.50
2022-12-01T02:45:29.582Z,23.50
2022-12-01T02:46:29.656Z,23.30
2022-12-01T02:47:29.621Z,27.90
2022-12-01T02:48:29.617Z,28.20
2022-12-01T02:49:29.521Z,25.20
2022-12-01T02:50:29.565Z,22.20
2022-12-01T02:51:29.534Z,21.40
2022-12-01T02:52:29.481Z,21.90
2022-12-01T02:53:29.463Z,20.50
2022-12-01T02:54:29.442Z,24.40
2022-12-01T02:55:29.459Z,21.30
2022-12-01T02:56:29.423Z,21.80
2022-12-01T02:57:29.413Z,22.20
2022-12-01T02:58:29.403Z,20.10
2022-12-01T02:59:29.396Z,20.00
2022-12-01T03:00:29.384Z,20.40
2022-12-01T03:01:29.427Z,22.10
2022-12-01T03:02:29.451Z,26.10
2022-12-01T03:03:29.415Z,25.20
2022-12-01T03:04:29.314Z,27.60
2022-12-01T03:05:30.383Z,29.60
2022-12-01T03:06:29.324Z,29.20
2022-12-01T03:07:29.381Z,29.30
2022-12-01T03:08:29.344Z,22.40
2022-12-01T03:09:29.345Z,26.50
2022-12-01T03:10:29.275Z,26.00
2022-12-01T03:11:30.295Z,25.30
2022-12-01T03:12:29.204Z,23.20
2022-12-01T03:13:29.286Z,22.90
2022-12-01T03:14:29.289Z,22.50
2022-12-01T03:15:29.227Z,22.30
2022-12-01T03:16:29.218Z,20.80
2022-12-01T03:17:29.212Z,17.70
2022-12-01T03:18:29.218Z,18.50
2022-12-01T03:19:29.126Z,17.20
2022-12-01T03:20:29.157Z,16.80
2022-12-01T03:21:29.086Z,17.40
2022-12-01T03:22:29.138Z,17.40
2022-12-01T03:23:29.140Z,17.80
2022-12-01T03:24:30.068Z,18.40
2022-12-01T03:25:29.086Z,19.80
2022-12-01T03:26:29.030Z,19.10
2022-12-01T03:27:29.068Z,19.80
2022-12-01T03:28:29.077Z,20.30
2022-12-01T03:29:29.089Z,21.00
2022-12-01T03:30:29.022Z,18.70
2022-12-01T03:31:29.029Z,24.50
2022-12-01T03:32:29.000Z,24.50
2022-12-01T03:33:28.947Z,23.00
2022-12-01T03:34:29.018Z,22.90
2022-12-01T03:35:28.945Z,23.10
2022-12-01T03:36:28.958Z,23.50
2022-12-01T03:37:28.887Z,23.40
2022-12-01T03:38:28.928Z,24.50
2022-12-01T03:39:28.862Z,24.20
2022-12-01T03:40:28.857Z,21.30
2022-12-01T03:41:28.817Z,21.20
2022-12-01T03:42:28.862Z,20.40
2022-12-01T03:43:28.873Z,22.00
2022-12-01T03:44:28.787Z,19.80
2022-12-01T03:45:28.784Z,22.90
2022-12-01T03:46:28.839Z,22.50
2022-12-01T03:47:28.799Z,19.50
2022-12-01T03:48:28.747Z,18.00
2022-12-01T03:49:28.728Z,20.90
2022-12-01T03:50:28.759Z,20.50
2022-12-01T04:03:42.459Z,14.70
2022-12-01T04:04:42.519Z,14.10
2022-12-01T04:05:42.476Z,14.30
2022-12-01T04:06:42.410Z,16.70
2022-12-01T04:07:42.464Z,15.70
2022-12-01T04:08:42.456Z,16.60
2022-12-01T04:09:42.459Z,16.50
2022-12-01T04:10:42.409Z,16.40
2022-12-01T04:11:42.370Z,17.60
2022-12-01T04:12:42.378Z,17.00
2022-12-01T04:13:42.388Z,16.90
2022-12-01T04:14:42.390Z,18.00
2022-12-01T04:15:42.377Z,16.10
2022-12-01T04:16:42.316Z,17.10
2022-12-01T04:17:42.346Z,15.80
2022-12-01T04:18:42.263Z,16.50
2022-12-01T04:19:42.244Z,16.60
2022-12-01T04:20:42.231Z,18.20
2022-12-01T04:21:42.220Z,18.60
2022-12-01T04:22:42.202Z,18.90
2022-12-01T04:23:42.211Z,19.00
2022-12-01T04:24:42.261Z,18.60
2022-12-01T04:25:42.204Z,19.10
2022-12-01T04:26:42.141Z,17.00
2022-12-01T04:27:42.180Z,16.60
2022-12-01T04:28:42.181Z,17.40
2022-12-01T04:29:42.220Z,19.00
2022-12-01T04:30:42.092Z,20.60
2022-12-01T04:31:43.171Z,16.90
2022-12-01T04:32:42.116Z,20.50
2022-12-01T04:33:42.151Z,20.40
2022-12-01T04:34:42.123Z,20.10
2022-12-01T04:35:42.139Z,20.60
2022-12-01T04:36:42.015Z,20.70
2022-12-01T04:37:42.012Z,18.30
2022-12-01T04:38:42.071Z,17.70
2022-12-01T04:39:41.988Z,19.00
2022-12-01T04:40:41.952Z,18.50
2022-12-01T04:41:42.073Z,19.40
2022-12-01T04:43:52.187Z,17.20
2022-12-01T04:44:52.226Z,17.30
2022-12-01T04:45:52.238Z,18.20
2022-12-01T04:46:52.191Z,16.90
2022-12-01T04:47:52.147Z,19.10
2022-12-01T04:48:52.117Z,18.90
2022-12-01T04:49:52.214Z,19.10
2022-12-01T04:50:52.068Z,18.70
2022-12-01T04:51:52.065Z,18.80
2022-12-01T04:52:52.048Z,16.60
2022-12-01T04:53:52.046Z,18.40
2022-12-01T04:54:52.025Z,17.50
2022-12-01T04:55:52.029Z,18.60
2022-12-01T04:56:52.000Z,17.20
2022-12-01T04:57:51.979Z,18.90
2022-12-01T04:58:52.035Z,18.30
2022-12-01T04:59:52.240Z,19.00
2022-12-01T05:00:51.959Z,19.40
2022-12-01T05:01:51.993Z,19.90
2022-12-01T05:02:52.058Z,18.50
2022-12-01T05:03:51.910Z,18.50
2022-12-01T05:04:51.885Z,18.80
2022-12-01T05:05:51.866Z,18.80
2022-12-01T05:06:51.866Z,18.90
2022-12-01T05:07:51.942Z,19.60
2022-12-01T05:08:51.832Z,18.60
2022-12-01T05:09:52.030Z,19.80
2022-12-01T05:10:51.809Z,19.90
2022-12-01T05:11:51.801Z,18.90
2022-12-01T05:12:51.794Z,19.10
2022-12-01T05:13:51.774Z,17.60
2022-12-01T05:14:51.782Z,17.20
2022-12-01T05:15:51.829Z,17.90
2022-12-01T05:16:51.732Z,16.20
2022-12-01T05:17:51.725Z,16.50
2022-12-01T05:18:51.785Z,17.90
2022-12-01T05:19:51.842Z,18.60
2022-12-01T05:20:51.679Z,17.70
2022-12-01T05:21:51.682Z,19.30
2022-12-01T05:23:05.418Z,18.90
2022-12-01T05:23:52.641Z,19.30
2022-12-01T05:24:51.620Z,19.60
2022-12-01T05:25:51.628Z,18.50
2022-12-01T05:26:51.642Z,19.50
2022-12-01T05:27:51.620Z,19.80
2022-12-01T05:28:51.570Z,18.80
2022-12-01T05:29:51.846Z,17.60
2022-12-01T05:30:51.557Z,17.20
2022-12-01T05:31:51.576Z,17.60
2022-12-01T05:32:51.522Z,17.10
2022-12-01T05:33:51.499Z,19.70
2022-12-01T05:34:51.488Z,17.10
2022-12-01T05:35:51.493Z,18.40
2022-12-01T05:36:51.474Z,18.20
2022-12-01T05:37:51.441Z,19.00
2022-12-01T05:38:51.434Z,19.20
2022-12-01T05:39:51.540Z,19.30
2022-12-01T05:40:51.411Z,20.70
2022-12-01T05:41:51.401Z,20.40
2022-12-01T05:42:51.381Z,20.30
2022-12-01T05:43:51.374Z,20.70
2022-12-01T05:44:51.349Z,20.90
2022-12-01T05:45:51.396Z,21.60
2022-12-01T05:46:51.333Z,24.90
2022-12-01T05:47:51.313Z,24.90
2022-12-01T05:48:51.316Z,24.30
2022-12-01T05:49:51.495Z,23.30
2022-12-01T05:50:51.282Z,23.80
2022-12-01T05:51:51.282Z,23.10
2022-12-01T05:52:51.301Z,23.40
2022-12-01T05:53:51.235Z,20.50
2022-12-01T05:54:51.244Z,21.30
2022-12-01T05:55:51.212Z,23.30
2022-12-01T05:56:51.212Z,23.50
2022-12-01T05:57:51.269Z,24.40
2022-12-01T05:58:51.184Z,24.50
2022-12-01T05:59:51.394Z,22.70
2022-12-01T06:00:51.169Z,23.00
2022-12-01T06:01:51.174Z,19.30
2022-12-01T06:02:51.125Z,20.20
2022-12-01T06:03:51.180Z,19.00
2022-12-01T06:04:51.102Z,18.20
2022-12-01T06:05:51.082Z,18.50
2022-12-01T06:06:51.115Z,19.30
2022-12-01T06:07:51.080Z,21.70
2022-12-01T06:08:51.046Z,21.50
2022-12-01T06:09:51.418Z,21.20
2022-12-01T06:10:51.056Z,22.90
2022-12-01T06:11:52.657Z,19.00
2022-12-01T06:12:50.996Z,21.10
2022-12-01T06:13:50.975Z,21.20
2022-12-01T06:14:50.975Z,18.70
2022-12-01T06:15:50.976Z,19.70
2022-12-01T06:16:51.066Z,19.10
2022-12-01T06:17:50.962Z,19.00
2022-12-01T06:18:50.915Z,17.20
2022-12-01T06:19:51.316Z,18.40
2022-12-01T06:20:50.917Z,18.10
2022-12-01T06:21:50.897Z,18.30
2022-12-01T06:22:50.880Z,17.90
2022-12-01T06:23:50.848Z,19.40
2022-12-01T06:24:50.853Z,18.50
2022-12-01T06:25:50.822Z,19.10
2022-12-01T06:26:50.828Z,21.20
2022-12-01T06:27:50.816Z,17.50
2022-12-01T06:28:50.776Z,17.90
2022-12-01T06:29:50.936Z,16.70
2022-12-01T06:30:50.784Z,16.50
2022-12-01T06:31:50.834Z,15.70
2022-12-01T06:32:50.727Z,15.40
2022-12-01T06:33:50.739Z,16.80
2022-12-01T06:34:50.705Z,15.90
2022-12-01T06:35:50.685Z,16.60
2022-12-01T06:36:50.697Z,18.40
2022-12-01T06:37:50.675Z,16.40
2022-12-01T06:38:50.650Z,16.40
2022-12-01T06:39:50.945Z,16.90
2022-12-01T06:40:50.627Z,17.10
2022-12-01T06:41:50.633Z,15.90
2022-12-01T06:42:50.614Z,16.40
2022-12-01T06:43:50.575Z,16.20
2022-12-01T06:44:50.577Z,16.40
2022-12-01T06:45:50.596Z,15.40
2022-12-01T06:46:50.557Z,16.40
2022-12-01T06:47:50.527Z,16.00
2022-12-01T06:48:50.521Z,16.50
2022-12-01T06:49:50.848Z,18.50
2022-12-01T06:50:50.497Z,18.80
2022-12-01T06:51:50.478Z,19.20
2022-12-01T06:52:50.529Z,19.50
2022-12-01T06:53:50.449Z,19.90
2022-12-01T06:54:50.439Z,18.90
2022-12-01T06:55:50.429Z,18.80
2022-12-01T06:56:50.440Z,17.80
2022-12-01T06:57:50.418Z,17.40
2022-12-01T06:58:50.390Z,15.90
2022-12-01T06:59:50.559Z,17.30
2022-12-01T07:00:52.203Z,16.60
2022-12-01T07:01:50.392Z,16.40
2022-12-01T07:02:50.395Z,16.60
2022-12-01T07:03:50.311Z,18.30
2022-12-01T07:04:50.304Z,17.40
2022-12-01T07:05:50.291Z,16.20
2022-12-01T07:06:50.280Z,17.10
2022-12-01T07:07:53.790Z,16.60
2022-12-01T07:08:51.252Z,15.60
2022-12-01T07:09:50.459Z,17.00
2022-12-01T07:10:50.232Z,16.30
2022-12-01T07:11:50.226Z,16.70
2022-12-01T07:12:50.199Z,16.40
2022-12-01T07:13:50.178Z,17.70
2022-12-01T07:14:50.170Z,16.50
2022-12-01T07:15:50.154Z,16.70
2022-12-01T07:16:50.221Z,16.20
2022-12-01T07:17:50.152Z,17.30
2022-12-01T07:18:50.152Z,19.80
2022-12-01T07:19:50.200Z,17.70
2022-12-01T07:20:50.090Z,18.60
2022-12-01T07:21:50.080Z,19.50
2022-12-01T07:22:50.080Z,19.60
2022-12-01T07:23:50.040Z,20.50
2022-12-01T07:24:50.042Z,20.90
2022-12-01T07:25:50.054Z,20.10
2022-12-01T07:26:50.025Z,20.30
2022-12-01T07:27:50.020Z,21.80
2022-12-01T07:28:49.992Z,22.20
2022-12-01T07:29:50.238Z,23.20
2022-12-01T07:30:50.011Z,21.30
2022-12-01T07:31:49.952Z,22.40
2022-12-01T07:32:49.965Z,22.70
2022-12-01T07:33:49.921Z,21.80
2022-12-01T07:34:49.904Z,21.50
2022-12-01T07:35:49.881Z,22.10
2022-12-01T07:36:49.883Z,21.30
2022-12-01T07:37:49.871Z,21.80
2022-12-01T07:38:49.850Z,21.00
2022-12-01T07:39:50.152Z,22.00
2022-12-01T07:40:49.838Z,20.90
2022-12-01T07:41:49.819Z,19.90
2022-12-01T07:42:49.815Z,19.80
2022-12-01T07:43:49.795Z,18.20
2022-12-01T07:44:49.771Z,16.60
2022-12-01T07:45:49.797Z,18.10
2022-12-01T07:46:49.752Z,17.00
2022-12-01T07:47:49.743Z,16.20
2022-12-01T07:48:49.753Z,17.70
2022-12-01T07:49:50.030Z,17.20
2022-12-01T07:50:49.705Z,15.80
2022-12-01T07:51:49.673Z,17.90
2022-12-01T07:52:49.684Z,17.40
2022-12-01T07:53:49.685Z,17.80
2022-12-01T07:54:49.672Z,19.40
2022-12-01T07:55:49.623Z,19.40
2022-12-01T07:56:49.629Z,19.00
2022-12-01T07:57:49.613Z,18.50
2022-12-01T07:58:50.637Z,17.50
2022-12-01T07:59:49.949Z,17.70
2022-12-01T08:00:49.567Z,18.10
2022-12-01T08:01:49.594Z,19.60
2022-12-01T08:02:49.597Z,18.70
2022-12-01T08:03:49.542Z,19.20
2022-12-01T08:04:49.514Z,18.90
2022-12-01T08:05:49.508Z,18.80
2022-12-01T08:06:49.494Z,20.30
2022-12-01T08:07:49.512Z,19.30
2022-12-01T08:08:49.463Z,18.80
2022-12-01T08:09:49.739Z,17.50
2022-12-01T08:10:49.444Z,18.90
2022-12-01T08:11:49.439Z,19.00
2022-12-01T08:12:49.426Z,18.90
2022-12-01T08:13:49.424Z,19.00
2022-12-01T08:14:49.378Z,19.00
2022-12-01T08:15:49.420Z,19.30
2022-12-01T08:16:49.375Z,18.50
2022-12-01T08:17:49.345Z,18.30
2022-12-01T08:18:50.381Z,17.70
2022-12-01T08:19:49.506Z,17.60
2022-12-01T08:20:49.337Z,17.70
2022-12-01T08:21:49.309Z,17.60
2022-12-01T08:22:49.277Z,18.40
2022-12-01T08:23:49.306Z,18.40
2022-12-01T08:24:49.256Z,19.20
2022-12-01T08:25:49.236Z,18.60
2022-12-01T08:26:49.235Z,19.20
2022-12-01T08:27:49.235Z,19.20
2022-12-01T08:28:49.241Z,17.20
2022-12-01T08:29:49.444Z,18.60
2022-12-01T08:30:49.215Z,18.00
2022-12-01T08:31:49.172Z,17.40
2022-12-01T08:32:49.166Z,18.40
2022-12-01T08:33:49.159Z,18.50
2022-12-01T08:34:53.372Z,18.40
2022-12-01T08:35:49.113Z,17.60
2022-12-01T08:36:49.097Z,18.60
2022-12-01T08:37:49.097Z,19.20
2022-12-01T08:38:49.110Z,19.40
2022-12-01T08:39:49.327Z,19.10
2022-12-01T08:40:49.056Z,18.40
2022-12-01T08:41:49.047Z,19.70
2022-12-01T08:42:49.047Z,19.10
2022-12-01T08:43:57.914Z,18.30
2022-12-01T08:44:50.129Z,19.50
2022-12-01T08:45:48.986Z,19.40
2022-12-01T08:46:48.983Z,19.20
2022-12-01T08:47:48.962Z,19.10
2022-12-01T08:48:49.301Z,19.80
2022-12-01T08:49:49.326Z,19.80
2022-12-01T08:50:49.129Z,19.50
2022-12-01T08:51:49.238Z,19.00
2022-12-01T08:52:48.896Z,19.90
2022-12-01T08:53:48.892Z,20.00
2022-12-01T08:54:49.539Z,18.20
2022-12-01T08:55:48.860Z,17.90
2022-12-01T08:56:48.843Z,20.00
2022-12-01T08:57:48.836Z,18.60
2022-12-01T08:58:49.817Z,17.40
2022-12-01T08:59:49.231Z,18.20
2022-12-01T09:00:49.452Z,20.00
2022-12-01T09:01:49.029Z,18.90
2022-12-01T09:02:48.792Z,18.90
2022-12-01T09:03:49.111Z,19.10
2022-12-01T09:04:48.752Z,20.00
2022-12-01T09:05:48.740Z,19.30
2022-12-01T09:06:48.711Z,19.10
2022-12-01T09:07:48.810Z,19.60
2022-12-01T09:08:48.698Z,18.50
2022-12-01T09:09:49.967Z,19.20
2022-12-01T09:10:48.682Z,18.70
2022-12-01T09:11:49.422Z,18.20
2022-12-01T09:12:48.762Z,19.90
2022-12-01T09:13:54.439Z,21.00
2022-12-01T09:14:49.894Z,20.00
2022-12-01T09:15:49.895Z,19.60
2022-12-01T09:16:48.792Z,20.90
2022-12-01T09:17:48.961Z,20.60
2022-12-01T09:18:48.582Z,19.30
2022-12-01T09:19:49.022Z,18.00
2022-12-01T09:20:48.558Z,16.90
2022-12-01T09:21:49.523Z,18.60
2022-12-01T09:22:48.586Z,19.90
2022-12-01T09:23:49.332Z,18.10
2022-12-01T09:24:48.494Z,17.90
2022-12-01T09:25:48.491Z,17.50
2022-12-01T09:26:48.486Z,17.20
2022-12-01T09:27:48.915Z,18.70
2022-12-01T09:28:48.467Z,18.70
2022-12-01T09:29:48.660Z,21.40
2022-12-01T09:30:49.393Z,18.50
2022-12-01T09:31:48.726Z,21.20
2022-12-01T09:32:48.363Z,20.00
2022-12-01T09:33:48.392Z,21.30
2022-12-01T09:34:48.368Z,21.30
2022-12-01T09:35:48.323Z,20.80
2022-12-01T09:36:48.314Z,20.70
2022-12-01T09:37:48.294Z,20.60
2022-12-01T09:38:48.476Z,20.90
2022-12-01T09:39:48.590Z,18.90
2022-12-01T09:40:48.334Z,18.50
2022-12-01T09:41:48.255Z,20.10
2022-12-01T09:42:48.235Z,18.70
2022-12-01T09:43:48.224Z,19.10
2022-12-01T09:44:48.233Z,21.60
2022-12-01T09:45:48.204Z,20.00
2022-12-01T09:46:48.231Z,18.40
2022-12-01T09:47:48.177Z,18.70
2022-12-01T10:03:56.161Z,18.10
2022-12-01T10:04:56.159Z,17.70
2022-12-01T10:06:25.960Z,17.50
2022-12-01T10:06:57.108Z,18.50
2022-12-01T10:07:56.183Z,18.80
2022-12-01T10:08:56.086Z,19.00
2022-12-01T10:09:56.057Z,18.90
2022-12-01T10:10:56.048Z,19.10
2022-12-01T10:11:56.056Z,19.40
2022-12-01T10:12:56.025Z,18.00
2022-12-01T10:13:55.996Z,18.60
2022-12-01T10:14:56.016Z,17.20
2022-12-01T10:15:56.034Z,15.50
2022-12-01T10:16:56.975Z,16.80
2022-12-01T10:17:55.948Z,17.10
2022-12-01T10:18:55.944Z,15.70
2022-12-01T10:19:55.938Z,16.20
2022-12-01T10:20:55.918Z,18.60
2022-12-01T10:21:55.919Z,18.90
2022-12-01T10:22:55.889Z,19.50
2022-12-01T10:23:55.887Z,19.10
2022-12-01T10:24:56.163Z,19.20
2022-12-01T10:25:55.851Z,17.50
2022-12-01T10:26:56.842Z,16.30
2022-12-01T10:27:55.820Z,18.10
2022-12-01T10:28:55.819Z,16.10
2022-12-01T10:29:55.807Z,17.70
2022-12-01T10:30:55.790Z,17.30
2022-12-01T10:31:56.791Z,18.30
2022-12-01T10:32:55.759Z,17.80
2022-12-01T10:33:55.760Z,16.80
2022-12-01T10:34:55.753Z,17.40
2022-12-01T10:35:55.721Z,16.00
2022-12-01T10:36:55.733Z,18.70
2022-12-01T10:37:55.758Z,15.90
2022-12-01T10:38:55.694Z,16.50
2022-12-01T10:39:55.681Z,18.10
2022-12-01T10:40:55.661Z,17.90
2022-12-01T10:41:55.639Z,17.10
2022-12-01T10:42:55.641Z,17.30
2022-12-01T10:43:55.610Z,17.00
2022-12-01T10:44:55.631Z,18.10
2022-12-01T10:45:55.651Z,17.30
2022-12-01T10:46:55.723Z,15.70
2022-12-01T10:47:57.728Z,16.30
2022-12-01T10:48:55.577Z,18.20
2022-12-01T10:49:55.646Z,16.10
2022-12-01T10:50:55.532Z,15.10
2022-12-01T10:51:55.526Z,14.70
2022-12-01T10:52:55.523Z,15.00
2022-12-01T10:53:55.494Z,15.20
2022-12-01T10:54:55.474Z,14.70
2022-12-01T10:55:55.494Z,15.10
2022-12-01T10:56:55.462Z,15.80
2022-12-01T10:57:56.444Z,17.10
2022-12-01T10:58:55.434Z,15.50
2022-12-01T10:59:55.403Z,16.60
2022-12-01T11:01:00.127Z,16.10
2022-12-01T11:01:56.621Z,17.60
2022-12-01T11:02:55.485Z,17.80
2022-12-01T11:03:55.412Z,15.10
2022-12-01T11:04:55.368Z,16.10
2022-12-01T11:05:55.334Z,15.20
2022-12-01T11:06:55.326Z,14.30
2022-12-01T11:07:55.358Z,14.80
2022-12-01T11:08:55.319Z,15.10
2022-12-01T11:09:55.276Z,14.40
2022-12-01T11:10:55.276Z,15.20
2022-12-01T11:11:55.286Z,14.90
2022-12-01T11:12:56.246Z,14.50
2022-12-01T11:13:55.236Z,15.90
2022-12-01T11:14:55.216Z,15.50
2022-12-01T11:15:55.209Z,14.90
2022-12-01T11:16:55.233Z,13.90
2022-12-01T11:17:55.187Z,15.50
2022-12-01T11:18:55.217Z,16.00
2022-12-01T11:19:55.221Z,13.50
2022-12-01T11:20:55.180Z,14.60
2022-12-01T11:21:55.137Z,15.30
2022-12-01T11:22:56.117Z,14.50
2022-12-01T11:23:55.103Z,16.50
2022-12-01T11:24:55.110Z,14.70
2022-12-01T11:25:55.078Z,15.80
2022-12-01T11:26:55.059Z,15.50
2022-12-01T11:27:56.038Z,13.90
2022-12-01T11:28:55.091Z,15.20
2022-12-01T11:29:55.021Z,15.60
2022-12-01T11:30:56.670Z,15.90
2022-12-01T11:31:55.041Z,16.30
2022-12-01T11:32:55.021Z,15.00
2022-12-01T11:33:54.978Z,14.10
2022-12-01T11:34:54.959Z,14.10
2022-12-01T11:35:54.960Z,15.80
2022-12-01T11:36:54.951Z,16.30
2022-12-01T11:38:55.922Z,13.60
2022-12-01T11:39:54.905Z,16.00
2022-12-01T11:40:54.914Z,13.20
2022-12-01T11:41:54.872Z,14.30
2022-12-01T11:42:54.869Z,14.00
2022-12-01T11:44:01.546Z,15.10
2022-12-01T11:44:55.848Z,16.10
2022-12-01T11:45:54.868Z,14.90
2022-12-01T11:47:07.712Z,14.90
2022-12-01T11:47:55.802Z,14.00
2022-12-01T11:48:54.795Z,13.60
2022-12-01T11:49:54.768Z,14.30
2022-12-01T11:50:55.775Z,15.10
2022-12-01T11:51:54.752Z,14.40
2022-12-01T11:52:54.745Z,14.70
2022-12-01T11:53:55.727Z,12.80
2022-12-01T11:54:54.712Z,13.40
2022-12-01T11:55:54.715Z,13.30
2022-12-01T11:57:25.544Z,13.30
2022-12-01T11:57:55.685Z,13.60
2022-12-01T11:58:54.734Z,12.30
2022-12-01T11:59:54.634Z,12.70
2022-12-01T12:00:54.654Z,13.10
2022-12-01T12:01:54.658Z,13.00
2022-12-01T12:02:54.607Z,12.40
2022-12-01T12:03:54.649Z,11.70
2022-12-01T12:04:54.593Z,12.60
2022-12-01T12:05:57.606Z,12.30
2022-12-01T12:06:55.553Z,13.20
2022-12-01T12:07:54.593Z,12.60
2022-12-01T12:08:56.648Z,12.90
2022-12-01T12:09:54.517Z,12.30
2022-12-01T12:10:54.568Z,12.50
2022-12-01T12:11:54.477Z,12.00
2022-12-01T12:12:54.487Z,12.10
2022-12-01T12:13:54.467Z,11.60
2022-12-01T12:14:54.456Z,12.10
2022-12-01T12:15:54.456Z,12.00
2022-12-01T12:16:54.448Z,12.10
2022-12-01T12:17:54.490Z,13.00
2022-12-01T12:18:54.397Z,13.60
2022-12-01T12:20:10.021Z,12.00
2022-12-01T12:20:55.449Z,12.80
2022-12-01T12:21:54.364Z,12.60
2022-12-01T12:22:56.374Z,11.80
2022-12-01T12:23:54.377Z,12.10
2022-12-01T12:24:54.341Z,11.30
2022-12-01T12:25:54.331Z,11.70
2022-12-01T12:26:54.296Z,11.50
2022-12-01T12:27:54.331Z,11.50
2022-12-01T12:28:54.292Z,12.20
2022-12-01T12:29:54.248Z,12.30
2022-12-01T12:30:54.336Z,12.50
2022-12-01T12:31:54.230Z,11.70
2022-12-01T12:32:54.251Z,11.20
2022-12-01T12:33:54.210Z,12.20
2022-12-01T12:34:55.201Z,11.60
2022-12-01T12:35:54.197Z,12.60
2022-12-01T12:36:54.172Z,11.40
2022-12-01T12:37:54.160Z,11.40
2022-12-01T12:38:54.161Z,11.90
2022-12-01T12:39:54.153Z,11.70
2022-12-01T12:40:54.134Z,11.90
2022-12-01T12:41:54.128Z,11.50
2022-12-01T12:42:54.093Z,11.50
2022-12-01T12:43:55.080Z,11.60
2022-12-01T12:44:55.061Z,11.90
2022-12-01T12:45:54.099Z,11.50
2022-12-01T12:46:54.042Z,10.90
2022-12-01T12:47:54.021Z,11.80
2022-12-01T12:49:18.640Z,10.90
2022-12-01T12:49:55.012Z,11.80
2022-12-01T12:50:54.001Z,11.10
2022-12-01T12:51:53.992Z,11.80
2022-12-01T12:52:53.975Z,10.90
2022-12-01T12:53:54.053Z,11.80
2022-12-01T12:54:53.949Z,11.60
2022-12-01T12:55:53.942Z,11.50
2022-12-01T12:56:53.929Z,12.10
2022-12-01T12:57:53.910Z,11.50
2022-12-01T12:58:53.895Z,12.50
2022-12-01T12:59:54.873Z,12.50
2022-12-01T13:00:53.898Z,12.40
2022-12-01T13:01:53.891Z,12.90
2022-12-01T13:02:53.914Z,15.30
2022-12-01T13:03:53.840Z,13.90
2022-12-01T13:04:53.814Z,12.10
2022-12-01T13:05:53.815Z,12.60
2022-12-01T13:06:53.807Z,12.60
2022-12-01T13:07:53.843Z,12.70
2022-12-01T13:08:53.766Z,12.10
2022-12-01T13:09:53.745Z,11.90
2022-12-01T13:10:53.767Z,12.20
2022-12-01T13:11:53.724Z,12.30
2022-12-01T13:12:53.716Z,12.00
2022-12-01T13:13:53.697Z,11.30
2022-12-01T13:14:59.449Z,11.60
2022-12-01T13:15:54.743Z,12.60
2022-12-01T13:16:53.665Z,11.70
2022-12-01T13:17:53.646Z,11.60
2022-12-01T13:18:53.644Z,10.50
2022-12-01T13:19:53.620Z,11.10
2022-12-01T13:20:53.630Z,12.00
2022-12-01T13:21:53.599Z,11.80
2022-12-01T13:22:53.589Z,11.50